createdAt,value
2023-03-15T14:00:50.615Z,94552.00
2023-03-15T14:04:51.400Z,94554.00
2023-03-15T14:08:50.855Z,94546.00
2023-03-15T14:12:50.843Z,94548.00
2023-03-15T14:17:04.299Z,94572.00
2023-03-15T14:20:51.834Z,94556.00
2023-03-15T14:24:50.824Z,94543.00
2023-03-15T14:28:50.732Z,94564.00
2023-03-15T14:32:51.118Z,94543.00
2023-03-15T14:36:51.846Z,94574.00
2023-03-15T14:40:51.202Z,94572.00
2023-03-15T14:44:51.376Z,94562.00
2023-03-15T14:48:51.405Z,94591.00
2023-03-15T14:52:51.453Z,94570.00
2023-03-15T14:56:51.628Z,94582.00
2023-03-15T15:00:51.861Z,94593.00
2023-03-15T15:04:51.974Z,94590.00
2023-03-15T15:08:52.135Z,94611.00
2023-03-15T15:13:04.783Z,94599.00
2023-03-15T15:16:53.927Z,94593.00
2023-03-15T15:20:52.101Z,94599.00
2023-03-15T15:24:52.037Z,94603.00
2023-03-15T15:28:52.302Z,94605.00
2023-03-15T15:32:53.756Z,94603.00
2023-03-15T15:36:52.783Z,94617.00
2023-03-15T15:40:53.378Z,94623.00
2023-03-15T15:44:52.900Z,94646.00
2023-03-15T15:48:52.807Z,94637.00
2023-03-15T15:52:52.907Z,94646.00
2023-03-15T15:56:53.120Z,94627.00
2023-03-15T16:00:53.276Z,94637.00
2023-03-15T16:04:53.303Z,94639.00
2023-03-15T16:08:54.373Z,94639.00
2023-03-15T16:12:53.437Z,94637.00
2023-03-15T16:16:53.570Z,94641.00
2023-03-15T16:20:53.644Z,94648.00
2023-03-15T16:24:53.684Z,94658.00
2023-03-15T16:28:53.743Z,94658.00
2023-03-15T16:32:53.945Z,94668.00
2023-03-15T16:36:54.099Z,94666.00
2023-03-15T16:40:54.159Z,94680.00
2023-03-15T16:44:54.457Z,94680.00
2023-03-15T16:48:55.453Z,94695.00
2023-03-15T16:52:54.644Z,94695.00
2023-03-15T16:56:54.764Z,94697.00
2023-03-15T17:00:55.039Z,94695.00
2023-03-15T17:04:55.210Z,94707.00
2023-03-15T17:08:55.317Z,94715.00
2023-03-15T17:12:55.497Z,94715.00
2023-03-15T17:16:55.658Z,94729.00
2023-03-15T17:20:55.813Z,94737.00
2023-03-15T17:24:56.104Z,94744.00
2023-03-15T17:28:56.233Z,94756.00
2023-03-15T17:32:56.332Z,94754.00
2023-03-15T17:36:56.430Z,94766.00
2023-03-15T17:40:56.598Z,94774.00
2023-03-15T17:44:56.747Z,94770.00
2023-03-15T17:48:56.995Z,94774.00
2023-03-15T17:52:56.992Z,94776.00
2023-03-15T17:56:57.071Z,94772.00
2023-03-15T18:00:57.243Z,94774.00
2023-03-15T18:04:57.419Z,94776.00
2023-03-15T18:08:57.511Z,94780.00
2023-03-15T18:12:57.638Z,94782.00
2023-03-15T18:16:57.789Z,94784.00
2023-03-15T18:20:57.826Z,94790.00
2023-03-15T18:24:57.942Z,94788.00
2023-03-15T18:28:58.096Z,94795.00
2023-03-15T18:32:58.325Z,94795.00
2023-03-15T18:36:58.422Z,94799.00
2023-03-15T18:40:58.496Z,94797.00
2023-03-15T18:44:58.743Z,94797.00
2023-03-15T18:48:58.767Z,94803.00
2023-03-15T18:52:58.922Z,94803.00
2023-03-15T18:56:59.073Z,94817.00
2023-03-15T19:00:59.280Z,94823.00
2023-03-15T19:04:59.362Z,94817.00
2023-03-15T19:08:59.533Z,94821.00
2023-03-15T19:12:59.626Z,94833.00
2023-03-15T19:16:59.786Z,94833.00
2023-03-15T19:20:59.877Z,94833.00
2023-03-15T19:25:00.013Z,94829.00
2023-03-15T19:29:00.113Z,94844.00
2023-03-15T19:33:00.285Z,94846.00
2023-03-15T19:37:01.405Z,94846.00
2023-03-15T19:41:00.615Z,94846.00
2023-03-15T19:45:00.728Z,94846.00
2023-03-15T19:49:00.762Z,94850.00
2023-03-15T19:53:00.838Z,94852.00
2023-03-15T19:57:00.813Z,94858.00
2023-03-15T20:01:01.894Z,94858.00
2023-03-15T20:05:01.158Z,94856.00
2023-03-15T20:09:01.230Z,94858.00
2023-03-15T20:13:01.261Z,94858.00
2023-03-15T20:17:01.427Z,94858.00
2023-03-15T20:21:01.499Z,94852.00
2023-03-15T20:25:01.694Z,94864.00
2023-03-15T20:29:01.767Z,94868.00
2023-03-15T20:33:01.997Z,94858.00
2023-03-15T20:37:02.118Z,94860.00
2023-03-15T20:41:02.190Z,94866.00
2023-03-15T20:45:02.253Z,94874.00
2023-03-15T20:49:02.406Z,94878.00
2023-03-15T20:53:02.522Z,94880.00
2023-03-15T20:57:02.656Z,94882.00
2023-03-15T21:01:02.772Z,94886.00
2023-03-15T21:05:02.788Z,94886.00
2023-03-15T21:09:03.067Z,94903.00
2023-03-15T21:13:03.173Z,94909.00
2023-03-15T21:17:03.336Z,94911.00
2023-03-15T21:21:03.589Z,94903.00
2023-03-15T21:25:03.725Z,94905.00
2023-03-15T21:29:03.897Z,94909.00
2023-03-15T21:33:04.204Z,94901.00
2023-03-15T21:37:04.250Z,94903.00
2023-03-15T21:41:04.884Z,94905.00
2023-03-15T21:45:04.728Z,94907.00
2023-03-15T21:49:04.672Z,94905.00
2023-03-15T21:53:04.859Z,94907.00
2023-03-15T21:57:04.928Z,94903.00
2023-03-15T22:01:05.145Z,94907.00
2023-03-15T22:05:05.222Z,94909.00
2023-03-15T22:09:05.420Z,94905.00
2023-03-15T22:13:05.435Z,94903.00
2023-03-15T22:17:05.498Z,94909.00
2023-03-15T22:21:05.489Z,94905.00
2023-03-15T22:25:05.412Z,94907.00
2023-03-15T22:29:05.379Z,94911.00
2023-03-15T22:33:05.313Z,94913.00
2023-03-15T22:37:05.226Z,94917.00
2023-03-15T22:41:05.193Z,94925.00
2023-03-15T22:45:05.163Z,94929.00
2023-03-15T22:49:05.141Z,94940.00
2023-03-15T22:53:05.061Z,94948.00
2023-03-15T22:57:05.013Z,94948.00
2023-03-15T23:01:04.955Z,94940.00
2023-03-15T23:05:04.987Z,94950.00
2023-03-15T23:09:06.635Z,94956.00
2023-03-15T23:13:05.218Z,94956.00
2023-03-15T23:17:05.437Z,94958.00
2023-03-15T23:21:05.608Z,94950.00
2023-03-15T23:25:05.794Z,94956.00
2023-03-15T23:29:05.840Z,94958.00
2023-03-15T23:33:06.094Z,94970.00
2023-03-15T23:37:06.096Z,94970.00
2023-03-15T23:41:06.253Z,94974.00
2023-03-15T23:45:06.406Z,94970.00
2023-03-15T23:49:06.618Z,94980.00
2023-03-15T23:53:06.706Z,94987.00
2023-03-15T23:57:07.031Z,94989.00
